sensor_id;sensor_type;location;lat;lon;timestamp;temperature;humidity
55121;DHT22;41019;48.512;9.036;2023-02-15T00:01:46;-0.10;99.50
55121;DHT22;41019;48.512;9.036;2023-02-15T00:04:14;-0.20;99.80
55121;DHT22;41019;48.512;9.036;2023-02-15T00:06:41;-0.10;99.90
55121;DHT22;41019;48.512;9.036;2023-02-15T00:09:09;-0.10;99.90
55121;DHT22;41019;48.512;9.036;2023-02-15T00:11:35;-0.20;99.90
55121;DHT22;41019;48.512;9.036;2023-02-15T00:14:31;-0.20;99.90
55121;DHT22;41019;48.512;9.036;2023-02-15T00:16:56;-0.20;99.90
55121;DHT22;41019;48.512;9.036;2023-02-15T00:19:25;-0.20;99.80
55121;DHT22;41019;48.512;9.036;2023-02-15T00:21:51;-0.20;99.60
55121;DHT22;41019;48.512;9.036;2023-02-15T00:24:18;-0.20;99.80
55121;DHT22;41019;48.512;9.036;2023-02-15T00:26:45;-0.30;99.60
55121;DHT22;41019;48.512;9.036;2023-02-15T00:29:13;-0.30;99.50
55121;DHT22;41019;48.512;9.036;2023-02-15T00:31:39;-0.30;99.60
55121;DHT22;41019;48.512;9.036;2023-02-15T00:34:11;-0.30;99.70
55121;DHT22;41019;48.512;9.036;2023-02-15T00:36:37;-0.30;99.80
55121;DHT22;41019;48.512;9.036;2023-02-15T00:39:03;-0.30;99.70
55121;DHT22;41019;48.512;9.036;2023-02-15T00:41:34;-0.30;99.50
55121;DHT22;41019;48.512;9.036;2023-02-15T00:44:00;-0.40;99.50
55121;DHT22;41019;48.512;9.036;2023-02-15T00:46:26;-0.40;99.30
55121;DHT22;41019;48.512;9.036;2023-02-15T00:48:52;-0.40;99.80
55121;DHT22;41019;48.512;9.036;2023-02-15T00:51:18;-0.40;99.80
55121;DHT22;41019;48.512;9.036;2023-02-15T00:53:46;-0.50;99.40
55121;DHT22;41019;48.512;9.036;2023-02-15T00:56:13;-0.50;99.50
55121;DHT22;41019;48.512;9.036;2023-02-15T00:58:39;-0.50;99.50
55121;DHT22;41019;48.512;9.036;2023-02-15T01:01:12;-0.60;99.10
55121;DHT22;41019;48.512;9.036;2023-02-15T01:03:39;-0.60;99.40
55121;DHT22;41019;48.512;9.036;2023-02-15T01:06:09;-0.60;99.50
55121;DHT22;41019;48.512;9.036;2023-02-15T01:08:36;-0.60;99.30
55121;DHT22;41019;48.512;9.036;2023-02-15T01:11:15;-0.60;99.30
55121;DHT22;41019;48.512;9.036;2023-02-15T01:13:49;-0.70;99.00
55121;DHT22;41019;48.512;9.036;2023-02-15T01:16:15;-0.70;99.20
55121;DHT22;41019;48.512;9.036;2023-02-15T01:18:42;-0.70;99.20
55121;DHT22;41019;48.512;9.036;2023-02-15T01:21:19;-0.80;99.20
55121;DHT22;41019;48.512;9.036;2023-02-15T01:23:46;-0.80;98.90
55121;DHT22;41019;48.512;9.036;2023-02-15T01:26:12;-0.80;99.30
55121;DHT22;41019;48.512;9.036;2023-02-15T01:28:39;-0.80;99.20
55121;DHT22;41019;48.512;9.036;2023-02-15T01:31:10;-0.90;98.90
55121;DHT22;41019;48.512;9.036;2023-02-15T01:33:38;-0.90;99.50
55121;DHT22;41019;48.512;9.036;2023-02-15T01:36:04;-0.90;99.20
55121;DHT22;41019;48.512;9.036;2023-02-15T01:38:31;-0.90;99.30
55121;DHT22;41019;48.512;9.036;2023-02-15T01:40:57;-1.00;99.10
55121;DHT22;41019;48.512;9.036;2023-02-15T01:43:48;-1.00;99.20
55121;DHT22;41019;48.512;9.036;2023-02-15T01:46:18;-1.00;99.00
55121;DHT22;41019;48.512;9.036;2023-02-15T01:48:48;-1.00;99.00
55121;DHT22;41019;48.512;9.036;2023-02-15T01:51:21;-0.90;99.00
55121;DHT22;41019;48.512;9.036;2023-02-15T01:53:59;-1.10;99.10
55121;DHT22;41019;48.512;9.036;2023-02-15T01:56:32;-1.10;99.20
55121;DHT22;41019;48.512;9.036;2023-02-15T01:59:05;-1.10;99.40
55121;DHT22;41019;48.512;9.036;2023-02-15T02:01:31;-1.20;99.20
55121;DHT22;41019;48.512;9.036;2023-02-15T02:04:24;-1.20;99.30
55121;DHT22;41019;48.512;9.036;2023-02-15T02:06:53;-1.20;99.50
55121;DHT22;41019;48.512;9.036;2023-02-15T02:09:19;-1.20;99.00
55121;DHT22;41019;48.512;9.036;2023-02-15T02:11:47;-1.30;99.30
55121;DHT22;41019;48.512;9.036;2023-02-15T02:14:15;-1.30;99.50
55121;DHT22;41019;48.512;9.036;2023-02-15T02:17:06;-1.30;99.30
55121;DHT22;41019;48.512;9.036;2023-02-15T02:27:49;-1.30;99.30
55121;DHT22;41019;48.512;9.036;2023-02-15T02:42:02;-1.40;99.40
55121;DHT22;41019;48.512;9.036;2023-02-15T02:44:54;-1.40;99.40
55121;DHT22;41019;48.512;9.036;2023-02-15T02:47:30;-1.40;99.40
55121;DHT22;41019;48.512;9.036;2023-02-15T02:50:06;-1.40;99.40
55121;DHT22;41019;48.512;9.036;2023-02-15T02:52:44;-1.40;99.20
55121;DHT22;41019;48.512;9.036;2023-02-15T02:58:09;-1.40;99.40
55121;DHT22;41019;48.512;9.036;2023-02-15T03:00:46;-1.50;99.00
55121;DHT22;41019;48.512;9.036;2023-02-15T03:06:00;-1.50;99.00
55121;DHT22;41019;48.512;9.036;2023-02-15T03:08:40;-1.50;99.10
55121;DHT22;41019;48.512;9.036;2023-02-15T03:11:08;-1.50;99.20
55121;DHT22;41019;48.512;9.036;2023-02-15T03:13:35;-1.50;99.20
55121;DHT22;41019;48.512;9.036;2023-02-15T03:16:06;-1.50;99.10
55121;DHT22;41019;48.512;9.036;2023-02-15T03:18:59;-1.60;99.30
55121;DHT22;41019;48.512;9.036;2023-02-15T03:21:46;-1.60;99.20
55121;DHT22;41019;48.512;9.036;2023-02-15T03:24:34;-1.60;99.40
55121;DHT22;41019;48.512;9.036;2023-02-15T03:27:08;-1.60;99.40
55121;DHT22;41019;48.512;9.036;2023-02-15T03:29:38;-1.60;99.00
55121;DHT22;41019;48.512;9.036;2023-02-15T03:32:09;-1.60;99.20
55121;DHT22;41019;48.512;9.036;2023-02-15T03:34:36;-1.60;99.30
55121;DHT22;41019;48.512;9.036;2023-02-15T03:40:22;-1.60;99.20
55121;DHT22;41019;48.512;9.036;2023-02-15T03:43:17;-1.60;99.00
55121;DHT22;41019;48.512;9.036;2023-02-15T03:45:49;-1.60;99.10
55121;DHT22;41019;48.512;9.036;2023-02-15T03:48:31;-1.60;99.10
55121;DHT22;41019;48.512;9.036;2023-02-15T03:51:07;-1.70;99.60
55121;DHT22;41019;48.512;9.036;2023-02-15T03:53:54;-1.60;99.80
55121;DHT22;41019;48.512;9.036;2023-02-15T03:56:21;-1.60;99.70
55121;DHT22;41019;48.512;9.036;2023-02-15T03:58:47;-1.70;99.10
55121;DHT22;41019;48.512;9.036;2023-02-15T04:01:36;-1.70;99.10
55121;DHT22;41019;48.512;9.036;2023-02-15T04:06:55;-1.90;98.60
55121;DHT22;41019;48.512;9.036;2023-02-15T04:09:21;-1.80;99.00
55121;DHT22;41019;48.512;9.036;2023-02-15T04:12:06;-1.90;98.60
55121;DHT22;41019;48.512;9.036;2023-02-15T04:14:32;-1.90;99.00
55121;DHT22;41019;48.512;9.036;2023-02-15T04:17:17;-2.00;99.00
55121;DHT22;41019;48.512;9.036;2023-02-15T04:19:43;-2.00;99.10
55121;DHT22;41019;48.512;9.036;2023-02-15T04:22:28;-2.00;98.90
55121;DHT22;41019;48.512;9.036;2023-02-15T04:25:13;-2.00;99.00
55121;DHT22;41019;48.512;9.036;2023-02-15T04:27:50;-2.00;98.80
55121;DHT22;41019;48.512;9.036;2023-02-15T04:30:19;-2.10;98.30
55121;DHT22;41019;48.512;9.036;2023-02-15T04:32:45;-1.90;98.80
55121;DHT22;41019;48.512;9.036;2023-02-15T04:35:12;-2.10;98.70
55121;DHT22;41019;48.512;9.036;2023-02-15T04:37:39;-2.20;98.50
55121;DHT22;41019;48.512;9.036;2023-02-15T04:40:08;-2.20;98.60
55121;DHT22;41019;48.512;9.036;2023-02-15T04:42:34;-2.20;98.50
55121;DHT22;41019;48.512;9.036;2023-02-15T04:45:00;-2.20;99.00
55121;DHT22;41019;48.512;9.036;2023-02-15T04:47:26;-2.20;99.00
55121;DHT22;41019;48.512;9.036;2023-02-15T04:49:52;-2.20;98.80
55121;DHT22;41019;48.512;9.036;2023-02-15T04:52:17;-2.20;98.90
55121;DHT22;41019;48.512;9.036;2023-02-15T04:54:44;-2.20;98.80
55121;DHT22;41019;48.512;9.036;2023-02-15T04:57:10;-2.20;98.90
55121;DHT22;41019;48.512;9.036;2023-02-15T04:59:36;-2.20;98.90
55121;DHT22;41019;48.512;9.036;2023-02-15T05:02:02;-2.20;99.20
55121;DHT22;41019;48.512;9.036;2023-02-15T05:04:28;-2.20;99.10
55121;DHT22;41019;48.512;9.036;2023-02-15T05:06:55;-2.20;99.00
55121;DHT22;41019;48.512;9.036;2023-02-15T05:09:21;-2.20;99.10
55121;DHT22;41019;48.512;9.036;2023-02-15T05:11:47;-2.20;99.00
55121;DHT22;41019;48.512;9.036;2023-02-15T05:14:13;-2.20;99.10
55121;DHT22;41019;48.512;9.036;2023-02-15T05:16:39;-2.30;99.00
55121;DHT22;41019;48.512;9.036;2023-02-15T05:19:05;-2.20;99.20
55121;DHT22;41019;48.512;9.036;2023-02-15T05:21:32;-2.30;99.00
55121;DHT22;41019;48.512;9.036;2023-02-15T05:23:58;-2.30;99.10
55121;DHT22;41019;48.512;9.036;2023-02-15T05:26:24;-2.30;98.80
55121;DHT22;41019;48.512;9.036;2023-02-15T05:29:10;-2.30;99.20
55121;DHT22;41019;48.512;9.036;2023-02-15T05:31:37;-2.30;98.80
55121;DHT22;41019;48.512;9.036;2023-02-15T05:34:03;-2.30;98.60
55121;DHT22;41019;48.512;9.036;2023-02-15T05:36:29;-2.30;98.80
55121;DHT22;41019;48.512;9.036;2023-02-15T05:38:55;-2.40;98.90
55121;DHT22;41019;48.512;9.036;2023-02-15T05:41:21;-2.40;99.00
55121;DHT22;41019;48.512;9.036;2023-02-15T05:43:47;-2.40;98.90
55121;DHT22;41019;48.512;9.036;2023-02-15T05:46:13;-2.50;99.00
55121;DHT22;41019;48.512;9.036;2023-02-15T05:48:39;-2.40;99.00
55121;DHT22;41019;48.512;9.036;2023-02-15T05:51:11;-2.50;99.10
55121;DHT22;41019;48.512;9.036;2023-02-15T05:53:41;-2.50;98.80
55121;DHT22;41019;48.512;9.036;2023-02-15T05:56:09;-2.50;98.90
55121;DHT22;41019;48.512;9.036;2023-02-15T05:58:38;-2.40;99.10
55121;DHT22;41019;48.512;9.036;2023-02-15T06:01:08;-2.50;99.30
55121;DHT22;41019;48.512;9.036;2023-02-15T06:03:34;-2.40;99.10
55121;DHT22;41019;48.512;9.036;2023-02-15T06:06:00;-2.40;98.90
55121;DHT22;41019;48.512;9.036;2023-02-15T06:08:26;-2.40;98.80
55121;DHT22;41019;48.512;9.036;2023-02-15T06:10:52;-2.40;98.50
55121;DHT22;41019;48.512;9.036;2023-02-15T06:13:17;-2.40;98.30
55121;DHT22;41019;48.512;9.036;2023-02-15T06:15:43;-2.50;98.40
55121;DHT22;41019;48.512;9.036;2023-02-15T06:18:09;-2.40;99.00
55121;DHT22;41019;48.512;9.036;2023-02-15T06:20:35;-2.40;99.10
55121;DHT22;41019;48.512;9.036;2023-02-15T06:23:00;-1.70;99.70
55121;DHT22;41019;48.512;9.036;2023-02-15T06:25:26;-2.40;99.30
55121;DHT22;41019;48.512;9.036;2023-02-15T06:27:52;-2.40;99.10
55121;DHT22;41019;48.512;9.036;2023-02-15T06:30:18;-2.50;99.00
55121;DHT22;41019;48.512;9.036;2023-02-15T06:32:44;-2.40;98.90
55121;DHT22;41019;48.512;9.036;2023-02-15T06:35:10;-2.50;98.80
55121;DHT22;41019;48.512;9.036;2023-02-15T06:37:37;-2.50;98.70
55121;DHT22;41019;48.512;9.036;2023-02-15T06:40:04;-2.50;98.40
55121;DHT22;41019;48.512;9.036;2023-02-15T06:42:30;-2.50;98.80
55121;DHT22;41019;48.512;9.036;2023-02-15T06:44:55;-2.50;99.30
55121;DHT22;41019;48.512;9.036;2023-02-15T06:47:21;-2.50;99.30
55121;DHT22;41019;48.512;9.036;2023-02-15T06:49:47;-2.50;99.00
55121;DHT22;41019;48.512;9.036;2023-02-15T06:52:13;-2.50;98.90
55121;DHT22;41019;48.512;9.036;2023-02-15T06:54:38;-2.50;98.80
55121;DHT22;41019;48.512;9.036;2023-02-15T06:57:04;-2.50;98.60
55121;DHT22;41019;48.512;9.036;2023-02-15T06:59:30;-2.50;98.60
55121;DHT22;41019;48.512;9.036;2023-02-15T07:01:56;-2.50;99.00
55121;DHT22;41019;48.512;9.036;2023-02-15T07:04:22;-2.50;98.90
55121;DHT22;41019;48.512;9.036;2023-02-15T07:06:48;-2.50;99.20
55121;DHT22;41019;48.512;9.036;2023-02-15T07:09:14;-2.40;99.10
55121;DHT22;41019;48.512;9.036;2023-02-15T07:11:40;-2.40;99.60
55121;DHT22;41019;48.512;9.036;2023-02-15T07:14:24;-2.40;99.40
55121;DHT22;41019;48.512;9.036;2023-02-15T07:16:50;-2.30;99.60
55121;DHT22;41019;48.512;9.036;2023-02-15T07:19:16;-2.30;99.50
55121;DHT22;41019;48.512;9.036;2023-02-15T07:21:42;-2.20;99.50
55121;DHT22;41019;48.512;9.036;2023-02-15T07:24:09;-2.20;99.60
55121;DHT22;41019;48.512;9.036;2023-02-15T07:26:35;-2.20;99.50
55121;DHT22;41019;48.512;9.036;2023-02-15T07:29:01;-2.10;99.80
55121;DHT22;41019;48.512;9.036;2023-02-15T07:31:27;-2.10;99.60
55121;DHT22;41019;48.512;9.036;2023-02-15T07:33:53;-2.00;99.80
55121;DHT22;41019;48.512;9.036;2023-02-15T07:36:19;-1.90;99.70
55121;DHT22;41019;48.512;9.036;2023-02-15T07:38:44;-1.80;99.90
55121;DHT22;41019;48.512;9.036;2023-02-15T07:41:13;-1.70;99.90
55121;DHT22;41019;48.512;9.036;2023-02-15T07:43:42;-1.70;99.90
55121;DHT22;41019;48.512;9.036;2023-02-15T07:46:13;-1.60;99.90
55121;DHT22;41019;48.512;9.036;2023-02-15T07:48:41;-1.50;99.90
55121;DHT22;41019;48.512;9.036;2023-02-15T07:51:10;-1.40;99.90
55121;DHT22;41019;48.512;9.036;2023-02-15T07:53:37;-1.30;99.90
55121;DHT22;41019;48.512;9.036;2023-02-15T07:56:06;-1.20;99.90
55121;DHT22;41019;48.512;9.036;2023-02-15T07:58:34;-1.10;99.90
55121;DHT22;41019;48.512;9.036;2023-02-15T08:01:21;-0.90;99.90
55121;DHT22;41019;48.512;9.036;2023-02-15T08:03:48;-0.70;99.90
55121;DHT22;41019;48.512;9.036;2023-02-15T08:06:14;-0.50;99.90
55121;DHT22;41019;48.512;9.036;2023-02-15T08:08:41;-0.40;99.60
55121;DHT22;41019;48.512;9.036;2023-02-15T08:11:15;-0.30;99.40
55121;DHT22;41019;48.512;9.036;2023-02-15T08:16:34;0.00;99.30
55121;DHT22;41019;48.512;9.036;2023-02-15T08:21:31;0.20;99.20
55121;DHT22;41019;48.512;9.036;2023-02-15T08:23:58;0.30;99.00
55121;DHT22;41019;48.512;9.036;2023-02-15T08:26:26;0.50;98.80
55121;DHT22;41019;48.512;9.036;2023-02-15T08:28:53;0.60;98.50
55121;DHT22;41019;48.512;9.036;2023-02-15T08:31:20;0.70;98.60
55121;DHT22;41019;48.512;9.036;2023-02-15T08:33:47;0.90;98.80
55121;DHT22;41019;48.512;9.036;2023-02-15T08:36:17;1.00;98.90
55121;DHT22;41019;48.512;9.036;2023-02-15T08:38:43;1.20;98.60
55121;DHT22;41019;48.512;9.036;2023-02-15T08:43:42;1.50;98.00
55121;DHT22;41019;48.512;9.036;2023-02-15T08:46:10;1.60;97.70
55121;DHT22;41019;48.512;9.036;2023-02-15T08:48:37;1.80;97.20
55121;DHT22;41019;48.512;9.036;2023-02-15T08:51:09;1.90;97.00
55121;DHT22;41019;48.512;9.036;2023-02-15T08:53:40;2.00;96.90
55121;DHT22;41019;48.512;9.036;2023-02-15T08:56:07;2.10;97.00
55121;DHT22;41019;48.512;9.036;2023-02-15T08:58:34;2.30;96.70
55121;DHT22;41019;48.512;9.036;2023-02-15T09:01:01;2.40;96.40
55121;DHT22;41019;48.512;9.036;2023-02-15T09:03:28;2.60;96.60
55121;DHT22;41019;48.512;9.036;2023-02-15T09:06:01;2.70;96.10
55121;DHT22;41019;48.512;9.036;2023-02-15T09:08:27;2.90;96.00
55121;DHT22;41019;48.512;9.036;2023-02-15T09:10:53;3.10;95.80
55121;DHT22;41019;48.512;9.036;2023-02-15T09:13:20;3.20;95.40
55121;DHT22;41019;48.512;9.036;2023-02-15T09:15:46;3.30;94.90
55121;DHT22;41019;48.512;9.036;2023-02-15T09:18:12;3.40;95.00
55121;DHT22;41019;48.512;9.036;2023-02-15T09:20:44;3.60;94.90
55121;DHT22;41019;48.512;9.036;2023-02-15T09:23:10;3.70;94.90
55121;DHT22;41019;48.512;9.036;2023-02-15T09:25:36;3.90;94.90
55121;DHT22;41019;48.512;9.036;2023-02-15T09:28:02;4.00;94.20
55121;DHT22;41019;48.512;9.036;2023-02-15T09:30:28;4.10;94.10
55121;DHT22;41019;48.512;9.036;2023-02-15T09:32:54;4.30;94.30
55121;DHT22;41019;48.512;9.036;2023-02-15T09:35:20;4.50;94.30
55121;DHT22;41019;48.512;9.036;2023-02-15T09:37:45;4.60;93.50
55121;DHT22;41019;48.512;9.036;2023-02-15T09:40:16;4.70;93.50
55121;DHT22;41019;48.512;9.036;2023-02-15T09:50:51;5.50;92.50
55121;DHT22;41019;48.512;9.036;2023-02-15T09:56:41;5.90;91.60
55121;DHT22;41019;48.512;9.036;2023-02-15T09:59:49;6.10;91.20
55121;DHT22;41019;48.512;9.036;2023-02-15T10:05:43;6.40;90.40
55121;DHT22;41019;48.512;9.036;2023-02-15T10:11:17;6.70;90.00
55121;DHT22;41019;48.512;9.036;2023-02-15T10:14:15;6.90;90.00
55121;DHT22;41019;48.512;9.036;2023-02-15T10:25:25;7.70;85.30
55121;DHT22;41019;48.512;9.036;2023-02-15T10:27:52;8.00;85.00
55121;DHT22;41019;48.512;9.036;2023-02-15T10:33:25;8.30;77.60
55121;DHT22;41019;48.512;9.036;2023-02-15T10:38:49;8.70;77.50
55121;DHT22;41019;48.512;9.036;2023-02-15T10:55:12;9.70;63.90
55121;DHT22;41019;48.512;9.036;2023-02-15T11:08:25;10.30;61.80
55121;DHT22;41019;48.512;9.036;2023-02-15T11:11:07;10.30;59.40
55121;DHT22;41019;48.512;9.036;2023-02-15T11:13:59;10.40;59.20
55121;DHT22;41019;48.512;9.036;2023-02-15T11:19:17;10.60;61.40
55121;DHT22;41019;48.512;9.036;2023-02-15T11:21:57;10.80;58.60
55121;DHT22;41019;48.512;9.036;2023-02-15T11:24:28;10.90;58.80
55121;DHT22;41019;48.512;9.036;2023-02-15T11:32:31;11.30;59.80
55121;DHT22;41019;48.512;9.036;2023-02-15T11:35:17;11.40;58.70
55121;DHT22;41019;48.512;9.036;2023-02-15T11:37:55;11.40;57.50
55121;DHT22;41019;48.512;9.036;2023-02-15T11:40:27;11.60;59.70
55121;DHT22;41019;48.512;9.036;2023-02-15T11:42:57;11.70;59.20
55121;DHT22;41019;48.512;9.036;2023-02-15T11:45:30;11.70;59.50
55121;DHT22;41019;48.512;9.036;2023-02-15T11:47:58;11.80;59.00
55121;DHT22;41019;48.512;9.036;2023-02-15T11:50:30;11.80;56.90
55121;DHT22;41019;48.512;9.036;2023-02-15T11:53:33;11.90;58.20
55121;DHT22;41019;48.512;9.036;2023-02-15T11:56:02;12.00;58.80
55121;DHT22;41019;48.512;9.036;2023-02-15T11:58:47;12.10;58.10
55121;DHT22;41019;48.512;9.036;2023-02-15T12:08:51;12.30;56.90
55121;DHT22;41019;48.512;9.036;2023-02-15T12:11:28;12.30;57.20
55121;DHT22;41019;48.512;9.036;2023-02-15T12:13:58;12.40;57.80
55121;DHT22;41019;48.512;9.036;2023-02-15T12:16:28;12.50;56.10
55121;DHT22;41019;48.512;9.036;2023-02-15T12:19:01;12.50;55.70
55121;DHT22;41019;48.512;9.036;2023-02-15T12:21:38;12.50;55.10
55121;DHT22;41019;48.512;9.036;2023-02-15T12:24:30;12.60;54.90
55121;DHT22;41019;48.512;9.036;2023-02-15T12:27:17;12.70;55.00
55121;DHT22;41019;48.512;9.036;2023-02-15T12:34:51;13.10;54.10
55121;DHT22;41019;48.512;9.036;2023-02-15T12:37:26;13.20;52.70
55121;DHT22;41019;48.512;9.036;2023-02-15T12:39:59;13.40;53.50
55121;DHT22;41019;48.512;9.036;2023-02-15T12:42:28;13.60;52.40
55121;DHT22;41019;48.512;9.036;2023-02-15T12:50:46;13.80;50.40
55121;DHT22;41019;48.512;9.036;2023-02-15T12:53:34;13.80;50.20
55121;DHT22;41019;48.512;9.036;2023-02-15T12:56:02;13.80;48.90
55121;DHT22;41019;48.512;9.036;2023-02-15T12:58:34;13.90;48.50
55121;DHT22;41019;48.512;9.036;2023-02-15T13:01:18;14.00;49.30
55121;DHT22;41019;48.512;9.036;2023-02-15T13:06:26;14.10;47.50
55121;DHT22;41019;48.512;9.036;2023-02-15T13:08:55;14.10;47.80
55121;DHT22;41019;48.512;9.036;2023-02-15T13:11:26;14.10;47.30
55121;DHT22;41019;48.512;9.036;2023-02-15T13:14:01;14.10;47.60
55121;DHT22;41019;48.512;9.036;2023-02-15T13:16:37;14.10;46.90
55121;DHT22;41019;48.512;9.036;2023-02-15T13:19:19;14.20;46.30
55121;DHT22;41019;48.512;9.036;2023-02-15T13:21:50;14.20;45.60
55121;DHT22;41019;48.512;9.036;2023-02-15T13:24:28;14.20;45.50
55121;DHT22;41019;48.512;9.036;2023-02-15T13:26:57;14.20;43.80
55121;DHT22;41019;48.512;9.036;2023-02-15T13:29:30;14.30;44.30
55121;DHT22;41019;48.512;9.036;2023-02-15T13:32:25;14.30;43.70
55121;DHT22;41019;48.512;9.036;2023-02-15T13:34:57;14.40;43.50
55121;DHT22;41019;48.512;9.036;2023-02-15T13:40:23;14.40;42.90
55121;DHT22;41019;48.512;9.036;2023-02-15T13:51:46;14.60;42.20
55121;DHT22;41019;48.512;9.036;2023-02-15T13:54:33;14.70;42.30
55121;DHT22;41019;48.512;9.036;2023-02-15T13:59:47;14.70;42.60
55121;DHT22;41019;48.512;9.036;2023-02-15T14:10:59;14.70;44.90
55121;DHT22;41019;48.512;9.036;2023-02-15T14:16:47;14.70;45.20
55121;DHT22;41019;48.512;9.036;2023-02-15T14:22:02;14.50;47.20
55121;DHT22;41019;48.512;9.036;2023-02-15T14:24:40;14.50;48.00
55121;DHT22;41019;48.512;9.036;2023-02-15T14:29:59;14.50;48.20
55121;DHT22;41019;48.512;9.036;2023-02-15T14:32:33;14.40;48.50
55121;DHT22;41019;48.512;9.036;2023-02-15T14:35:06;14.40;49.00
55121;DHT22;41019;48.512;9.036;2023-02-15T14:49:25;14.10;46.70
55121;DHT22;41019;48.512;9.036;2023-02-15T14:52:01;14.10;46.80
55121;DHT22;41019;48.512;9.036;2023-02-15T15:02:22;14.00;45.90
55121;DHT22;41019;48.512;9.036;2023-02-15T15:07:53;13.80;47.70
55121;DHT22;41019;48.512;9.036;2023-02-15T15:12:54;13.80;47.00
55121;DHT22;41019;48.512;9.036;2023-02-15T15:17:55;13.70;47.70
55121;DHT22;41019;48.512;9.036;2023-02-15T15:25:50;13.30;48.60
55121;DHT22;41019;48.512;9.036;2023-02-15T15:31:21;13.10;49.80
55121;DHT22;41019;48.512;9.036;2023-02-15T15:37:11;13.00;50.60
55121;DHT22;41019;48.512;9.036;2023-02-15T15:46:13;12.50;52.90
55121;DHT22;41019;48.512;9.036;2023-02-15T15:48:46;12.30;53.80
55121;DHT22;41019;48.512;9.036;2023-02-15T15:51:20;12.20;53.20
55121;DHT22;41019;48.512;9.036;2023-02-15T15:53:50;12.00;55.70
55121;DHT22;41019;48.512;9.036;2023-02-15T15:56:26;11.80;57.10
55121;DHT22;41019;48.512;9.036;2023-02-15T15:59:18;11.60;56.60
55121;DHT22;41019;48.512;9.036;2023-02-15T16:01:46;11.50;54.60
55121;DHT22;41019;48.512;9.036;2023-02-15T16:04:24;11.50;55.40
55121;DHT22;41019;48.512;9.036;2023-02-15T16:06:51;11.40;54.20
55121;DHT22;41019;48.512;9.036;2023-02-15T16:09:22;11.40;53.80
55121;DHT22;41019;48.512;9.036;2023-02-15T16:11:58;11.40;51.60
55121;DHT22;41019;48.512;9.036;2023-02-15T16:14:37;11.30;52.10
55121;DHT22;41019;48.512;9.036;2023-02-15T16:17:17;11.30;52.00
55121;DHT22;41019;48.512;9.036;2023-02-15T16:19:45;11.30;51.70
55121;DHT22;41019;48.512;9.036;2023-02-15T16:22:20;11.30;51.50
55121;DHT22;41019;48.512;9.036;2023-02-15T16:27:15;11.20;52.50
55121;DHT22;41019;48.512;9.036;2023-02-15T16:29:44;11.00;52.40
55121;DHT22;41019;48.512;9.036;2023-02-15T16:32:25;11.00;52.50
55121;DHT22;41019;48.512;9.036;2023-02-15T16:37:23;10.80;53.80
55121;DHT22;41019;48.512;9.036;2023-02-15T16:39:54;10.60;54.30
55121;DHT22;41019;48.512;9.036;2023-02-15T16:42:21;10.50;54.30
55121;DHT22;41019;48.512;9.036;2023-02-15T16:45:13;10.40;55.40
55121;DHT22;41019;48.512;9.036;2023-02-15T16:47:45;10.20;56.40
55121;DHT22;41019;48.512;9.036;2023-02-15T16:50:20;10.00;56.00
55121;DHT22;41019;48.512;9.036;2023-02-15T16:52:47;9.90;55.60
55121;DHT22;41019;48.512;9.036;2023-02-15T16:55:28;9.70;56.70
55121;DHT22;41019;48.512;9.036;2023-02-15T16:58:01;9.60;57.30
55121;DHT22;41019;48.512;9.036;2023-02-15T17:00:35;9.50;58.10
55121;DHT22;41019;48.512;9.036;2023-02-15T17:03:21;9.30;58.90
55121;DHT22;41019;48.512;9.036;2023-02-15T17:05:57;9.10;59.70
55121;DHT22;41019;48.512;9.036;2023-02-15T17:11:14;8.90;60.90
55121;DHT22;41019;48.512;9.036;2023-02-15T17:16:49;8.50;62.40
55121;DHT22;41019;48.512;9.036;2023-02-15T17:22:03;8.30;63.90
55121;DHT22;41019;48.512;9.036;2023-02-15T17:27:01;8.10;66.10
55121;DHT22;41019;48.512;9.036;2023-02-15T17:29:39;8.00;66.80
55121;DHT22;41019;48.512;9.036;2023-02-15T17:32:17;7.90;67.60
55121;DHT22;41019;48.512;9.036;2023-02-15T17:34:56;7.70;68.50
55121;DHT22;41019;48.512;9.036;2023-02-15T17:37:43;7.60;69.20
55121;DHT22;41019;48.512;9.036;2023-02-15T17:40:16;7.50;70.30
55121;DHT22;41019;48.512;9.036;2023-02-15T17:42:43;7.40;71.00
55121;DHT22;41019;48.512;9.036;2023-02-15T17:45:09;7.30;71.70
55121;DHT22;41019;48.512;9.036;2023-02-15T17:47:35;7.20;72.60
55121;DHT22;41019;48.512;9.036;2023-02-15T17:50:05;7.10;73.00
55121;DHT22;41019;48.512;9.036;2023-02-15T17:52:31;7.00;74.70
55121;DHT22;41019;48.512;9.036;2023-02-15T17:54:58;6.80;76.00
55121;DHT22;41019;48.512;9.036;2023-02-15T17:57:44;6.70;77.30
55121;DHT22;41019;48.512;9.036;2023-02-15T18:00:13;6.60;77.80
55121;DHT22;41019;48.512;9.036;2023-02-15T18:02:58;6.50;77.90
55121;DHT22;41019;48.512;9.036;2023-02-15T18:05:43;6.30;79.00
55121;DHT22;41019;48.512;9.036;2023-02-15T18:08:29;6.20;79.50
55121;DHT22;41019;48.512;9.036;2023-02-15T18:11:13;6.10;80.60
55121;DHT22;41019;48.512;9.036;2023-02-15T18:13:58;6.00;80.90
55121;DHT22;41019;48.512;9.036;2023-02-15T18:16:33;5.80;83.10
55121;DHT22;41019;48.512;9.036;2023-02-15T18:19:02;5.70;84.80
55121;DHT22;41019;48.512;9.036;2023-02-15T18:21:30;5.60;85.10
55121;DHT22;41019;48.512;9.036;2023-02-15T18:23:57;5.50;85.20
55121;DHT22;41019;48.512;9.036;2023-02-15T18:26:24;5.40;85.50
55121;DHT22;41019;48.512;9.036;2023-02-15T18:28:52;5.30;86.40
55121;DHT22;41019;48.512;9.036;2023-02-15T18:31:19;5.20;87.60
55121;DHT22;41019;48.512;9.036;2023-02-15T18:33:53;5.20;88.30
55121;DHT22;41019;48.512;9.036;2023-02-15T18:36:25;5.10;88.70
55121;DHT22;41019;48.512;9.036;2023-02-15T18:38:55;5.00;89.70
55121;DHT22;41019;48.512;9.036;2023-02-15T18:41:21;4.90;89.70
55121;DHT22;41019;48.512;9.036;2023-02-15T18:43:48;4.90;90.00
55121;DHT22;41019;48.512;9.036;2023-02-15T18:46:15;4.80;90.20
55121;DHT22;41019;48.512;9.036;2023-02-15T18:48:42;4.70;90.30
55121;DHT22;41019;48.512;9.036;2023-02-15T18:51:19;4.60;90.60
55121;DHT22;41019;48.512;9.036;2023-02-15T18:53:50;4.50;91.20
55121;DHT22;41019;48.512;9.036;2023-02-15T18:56:19;4.40;91.30
55121;DHT22;41019;48.512;9.036;2023-02-15T18:58:46;4.40;91.40
55121;DHT22;41019;48.512;9.036;2023-02-15T19:01:14;4.30;91.40
55121;DHT22;41019;48.512;9.036;2023-02-15T19:03:47;4.20;91.70
55121;DHT22;41019;48.512;9.036;2023-02-15T19:06:19;4.10;91.90
55121;DHT22;41019;48.512;9.036;2023-02-15T19:08:48;4.10;92.00
55121;DHT22;41019;48.512;9.036;2023-02-15T19:11:18;4.00;92.10
55121;DHT22;41019;48.512;9.036;2023-02-15T19:13:45;4.00;92.30
55121;DHT22;41019;48.512;9.036;2023-02-15T19:16:27;4.00;92.70
55121;DHT22;41019;48.512;9.036;2023-02-15T19:18:54;3.90;92.70
55121;DHT22;41019;48.512;9.036;2023-02-15T19:21:20;3.90;93.00
55121;DHT22;41019;48.512;9.036;2023-02-15T19:23:55;3.80;92.90
55121;DHT22;41019;48.512;9.036;2023-02-15T19:26:22;3.80;93.20
55121;DHT22;41019;48.512;9.036;2023-02-15T19:28:49;3.70;93.20
55121;DHT22;41019;48.512;9.036;2023-02-15T19:31:15;3.70;93.30
55121;DHT22;41019;48.512;9.036;2023-02-15T19:33:43;3.60;93.40
55121;DHT22;41019;48.512;9.036;2023-02-15T19:36:17;3.50;93.60
55121;DHT22;41019;48.512;9.036;2023-02-15T19:38:46;3.40;93.60
55121;DHT22;41019;48.512;9.036;2023-02-15T19:41:19;3.40;93.60